Time;durP1;ratioP1;P1;durP2;ratioP2;P2;SDS_P1;SDS_P2;PMS_P1;PMS_P2;Temp;Humidity;BMP_temperature;BMP_pressure;BME280_temperature;BME280_humidity;BME280_pressure;Samples;Min_cycle;Max_cycle;Signal;HPM_P1;HPM_P2
2021/11/22 00:01:10;;;;;;;7.18;1.50;;;;;;;4.38;100.00;102032.00;2612876;31;20038;-70
2021/11/22 00:03:40;;;;;;;8.05;1.30;;;;;;;4.34;100.00;102050.88;2612473;31;20220;-68
2021/11/22 00:06:09;;;;;;;3.33;1.08;;;;;;;4.26;100.00;102043.22;2608324;31;20034;-68
2021/11/22 00:08:37;;;;;;;4.10;1.40;;;;;;;4.29;100.00;102052.88;2603900;36;20042;-67
2021/11/22 00:11:06;;;;;;;10.35;1.67;;;;;;;4.25;100.00;102059.28;2612752;36;20038;-70
2021/11/22 00:13:34;;;;;;;6.82;1.58;;;;;;;4.28;100.00;102062.66;2612445;36;20057;-68
2021/11/22 00:16:06;;;;;;;3.92;1.65;;;;;;;4.30;100.00;102062.59;2608929;36;20070;-70
2021/11/22 00:18:37;;;;;;;5.85;1.60;;;;;;;4.29;100.00;102060.88;2611541;36;20034;-68
2021/11/22 00:21:05;;;;;;;4.75;1.20;;;;;;;4.20;100.00;102060.31;2608080;36;20034;-69
2021/11/22 00:23:34;;;;;;;4.68;1.23;;;;;;;4.26;100.00;102069.00;2612916;36;20034;-71
2021/11/22 00:26:04;;;;;;;6.20;1.57;;;;;;;4.18;100.00;102067.53;2612497;36;20062;-68
2021/11/22 00:28:32;;;;;;;5.88;1.50;;;;;;;4.15;100.00;102078.31;2612596;36;20035;-68
2021/11/22 00:31:01;;;;;;;6.43;1.48;;;;;;;4.19;100.00;102074.56;2612590;36;20030;-69
2021/11/22 00:33:32;;;;;;;15.27;1.52;;;;;;;4.18;100.00;102080.84;2612201;31;20065;-69
2021/11/22 00:36:01;;;;;;;7.28;1.50;;;;;;;4.21;100.00;102087.81;2612301;36;20103;-69
2021/11/22 00:38:32;;;;;;;4.30;1.30;;;;;;;4.33;100.00;102081.16;2613217;36;20038;-69
2021/11/22 00:41:02;;;;;;;3.15;1.10;;;;;;;4.19;100.00;102085.22;2612465;36;20062;-68
2021/11/22 00:43:30;;;;;;;6.40;1.67;;;;;;;4.07;100.00;102096.41;2612723;36;20418;-69
2021/11/22 00:45:58;;;;;;;9.45;1.40;;;;;;;4.00;100.00;102086.94;2612615;36;20122;-69
2021/11/22 00:48:27;;;;;;;8.07;1.50;;;;;;;4.10;100.00;102098.94;2612537;36;20065;-69
2021/11/22 00:51:00;;;;;;;8.63;1.67;;;;;;;4.13;100.00;102104.16;2612031;36;20411;-68
2021/11/22 00:53:29;;;;;;;5.85;1.15;;;;;;;4.07;100.00;102104.41;2613124;36;20814;-68
2021/11/22 00:55:57;;;;;;;2.78;1.23;;;;;;;4.09;100.00;102115.84;2612432;36;20034;-69
2021/11/22 00:58:26;;;;;;;7.75;1.38;;;;;;;4.12;100.00;102118.41;2611902;36;20066;-69
2021/11/22 01:00:54;;;;;;;5.55;2.03;;;;;;;4.12;100.00;102122.84;2611561;36;20030;-68
2021/11/22 01:03:22;;;;;;;6.30;1.83;;;;;;;4.05;100.00;102124.94;2612433;36;20030;-68
2021/11/22 01:05:51;;;;;;;3.58;1.50;;;;;;;4.04;100.00;102123.19;2611876;36;20038;-68
2021/11/22 01:08:22;;;;;;;3.38;1.50;;;;;;;3.94;100.00;102127.16;2611972;36;20093;-71
2021/11/22 01:10:52;;;;;;;3.55;1.50;;;;;;;4.01;100.00;102128.63;2612098;36;20173;-69
2021/11/22 01:13:21;;;;;;;5.00;1.40;;;;;;;3.98;100.00;102137.63;2612907;36;20485;-70
2021/11/22 01:15:49;;;;;;;5.22;1.30;;;;;;;4.03;100.00;102135.66;2612099;36;20059;-69
2021/11/22 01:18:18;;;;;;;4.28;1.20;;;;;;;3.98;100.00;102140.28;2606283;36;20038;-69
2021/11/22 01:20:46;;;;;;;4.38;1.20;;;;;;;3.89;100.00;102142.44;2604169;36;20058;-69
2021/11/22 01:23:15;;;;;;;5.10;1.40;;;;;;;3.86;100.00;102141.63;2630417;36;20061;-70
2021/11/22 01:25:47;;;;;;;8.68;1.67;;;;;;;3.93;100.00;102144.06;2612129;36;20030;-70
2021/11/22 01:28:16;;;;;;;4.20;1.30;;;;;;;3.94;100.00;102144.00;2611647;36;20073;-68
2021/11/22 01:30:45;;;;;;;8.15;1.80;;;;;;;3.98;100.00;102156.25;2611835;36;20038;-70
2021/11/22 01:33:14;;;;;;;3.53;1.27;;;;;;;4.03;100.00;102161.41;2612292;31;20063;-71
2021/11/22 01:35:42;;;;;;;9.57;1.60;;;;;;;3.97;100.00;102165.19;2611822;36;20040;-70
2021/11/22 01:38:11;;;;;;;8.63;1.60;;;;;;;3.92;100.00;102160.97;2612646;36;20086;-69
2021/11/22 01:40:40;;;;;;;4.33;1.43;;;;;;;3.94;100.00;102167.09;2612390;36;20312;-68
2021/11/22 01:43:14;;;;;;;4.77;1.50;;;;;;;4.01;100.00;102165.94;2612109;36;20326;-70
2021/11/22 01:45:42;;;;;;;9.27;1.80;;;;;;;3.96;100.00;102173.22;2612419;36;20295;-69
2021/11/22 01:48:11;;;;;;;6.93;1.20;;;;;;;3.91;100.00;102175.22;2612404;36;20416;-71
2021/11/22 01:50:40;;;;;;;9.70;1.48;;;;;;;3.97;100.00;102181.16;2611489;36;20138;-70
2021/11/22 01:53:08;;;;;;;5.43;1.40;;;;;;;4.01;100.00;102187.25;2611799;36;20279;-68
2021/11/22 01:55:40;;;;;;;5.77;1.70;;;;;;;3.94;100.00;102183.09;2612463;36;20061;-70
2021/11/22 01:58:12;;;;;;;3.78;1.35;;;;;;;3.79;100.00;102204.06;2611497;36;20535;-68
2021/11/22 02:00:43;;;;;;;5.32;1.48;;;;;;;3.84;100.00;102194.13;2611576;36;20038;-68
2021/11/22 02:03:15;;;;;;;5.55;1.33;;;;;;;3.78;100.00;102197.00;2611239;36;20046;-69
2021/11/22 02:05:44;;;;;;;7.43;1.58;;;;;;;3.78;100.00;102202.31;2611937;36;20169;-69
2021/11/22 02:08:13;;;;;;;5.30;1.63;;;;;;;3.83;100.00;102200.34;2612466;36;20082;-70
2021/11/22 02:10:42;;;;;;;6.38;1.60;;;;;;;3.80;100.00;102205.81;2611823;36;20080;-68
2021/11/22 02:13:13;;;;;;;6.68;1.60;;;;;;;3.73;100.00;102212.28;2611870;36;20150;-70
2021/11/22 02:15:42;;;;;;;7.20;1.48;;;;;;;3.65;100.00;102223.25;2611643;36;20037;-68
2021/11/22 02:18:11;;;;;;;6.78;1.77;;;;;;;3.66;100.00;102216.09;2611650;36;20046;-68
2021/11/22 02:20:42;;;;;;;4.80;1.92;;;;;;;3.72;100.00;102218.53;2611648;36;20035;-68
2021/11/22 02:23:12;;;;;;;8.38;1.52;;;;;;;3.76;100.00;102221.97;2612173;36;20034;-68
2021/11/22 02:25:43;;;;;;;4.65;1.50;;;;;;;3.75;100.00;102218.41;2612078;36;20041;-69
2021/11/22 02:28:13;;;;;;;6.55;1.67;;;;;;;3.70;100.00;102219.53;2612054;36;20153;-68
2021/11/22 02:30:44;;;;;;;6.07;1.58;;;;;;;3.63;100.00;102222.41;2611535;36;20591;-70
2021/11/22 02:33:14;;;;;;;9.80;2.03;;;;;;;3.66;100.00;102224.94;2611094;36;20618;-70
2021/11/22 02:35:47;;;;;;;6.35;1.50;;;;;;;3.72;100.00;102233.66;2611626;36;20046;-68
2021/11/22 02:38:19;;;;;;;4.53;1.33;;;;;;;3.64;100.00;102231.28;2611867;36;20050;-70
2021/11/22 02:40:48;;;;;;;5.07;1.40;;;;;;;3.57;100.00;102233.28;2611541;36;20030;-69
2021/11/22 02:43:18;;;;;;;8.02;1.63;;;;;;;3.63;100.00;102234.88;2612157;36;20101;-68
2021/11/22 02:45:46;;;;;;;4.30;1.48;;;;;;;3.56;100.00;102230.69;2611459;36;20038;-69
2021/11/22 02:48:14;;;;;;;6.40;1.40;;;;;;;3.68;100.00;102232.88;2611662;36;20034;-68
2021/11/22 02:50:45;;;;;;;13.02;2.05;;;;;;;3.60;100.00;102237.66;2611684;36;20114;-70
2021/11/22 02:53:14;;;;;;;6.00;1.60;;;;;;;3.53;100.00;102238.78;2611954;36;20061;-69
2021/11/22 02:55:42;;;;;;;10.18;1.67;;;;;;;3.60;100.00;102245.63;2611490;36;20049;-68
2021/11/22 02:58:11;;;;;;;6.72;1.70;;;;;;;3.53;100.00;102238.78;2612573;31;20488;-70
2021/11/22 03:00:40;;;;;;;6.95;1.45;;;;;;;3.50;100.00;102245.97;2612282;36;20069;-68
2021/11/22 03:03:08;;;;;;;7.20;1.83;;;;;;;3.53;100.00;102255.63;2611468;36;20034;-70
2021/11/22 03:05:36;;;;;;;6.05;1.70;;;;;;;3.42;100.00;102252.50;2611690;36;20070;-70
2021/11/22 03:08:07;;;;;;;5.03;1.50;;;;;;;3.37;100.00;102257.97;2611917;36;20084;-68
2021/11/22 03:10:36;;;;;;;4.40;1.75;;;;;;;3.32;100.00;102259.94;2611714;36;20149;-68
2021/11/22 03:13:05;;;;;;;7.78;1.60;;;;;;;3.32;100.00;102260.78;2611503;36;20075;-68
2021/11/22 03:15:37;;;;;;;6.97;1.60;;;;;;;3.32;100.00;102267.91;2611730;36;20144;-68
2021/11/22 03:18:05;;;;;;;6.07;1.33;;;;;;;3.29;100.00;102276.88;2611748;36;20053;-70
2021/11/22 03:20:33;;;;;;;9.80;1.63;;;;;;;3.13;100.00;102281.84;2611576;36;20038;-68
2021/11/22 03:23:01;;;;;;;4.32;1.30;;;;;;;3.09;100.00;102282.03;2612044;31;20118;-67
2021/11/22 03:25:32;;;;;;;3.72;1.63;;;;;;;3.01;100.00;102290.28;2612687;36;20054;-69
2021/11/22 03:28:00;;;;;;;5.32;1.50;;;;;;;3.04;100.00;102290.16;2613007;36;20051;-70
2021/11/22 03:30:29;;;;;;;3.67;1.48;;;;;;;3.00;100.00;102299.16;2613349;36;20110;-68
2021/11/22 03:32:57;;;;;;;5.88;1.67;;;;;;;2.99;100.00;102297.44;2611205;36;20038;-68
2021/11/22 03:35:28;;;;;;;4.53;1.45;;;;;;;3.03;100.00;102299.06;2613235;36;20759;-68
2021/11/22 03:37:56;;;;;;;5.38;1.42;;;;;;;3.05;100.00;102299.00;2612695;36;20121;-69
2021/11/22 03:40:25;;;;;;;3.00;1.50;;;;;;;3.00;100.00;102304.47;2611989;36;20041;-68
2021/11/22 03:43:11;;;;;;;5.07;1.30;;;;;;;3.00;100.00;102307.13;2612412;36;20137;-68
2021/11/22 03:45:41;;;;;;;9.88;1.77;;;;;;;2.98;100.00;102311.66;2613461;31;20434;-69
2021/11/22 03:48:09;;;;;;;6.82;1.50;;;;;;;2.95;100.00;102319.75;2612367;36;20038;-70
2021/11/22 03:50:38;;;;;;;4.60;1.53;;;;;;;2.87;100.00;102320.00;2613288;36;20055;-68
2021/11/22 03:53:06;;;;;;;5.78;1.80;;;;;;;2.92;100.00;102318.03;2612657;36;20038;-68
2021/11/22 03:55:34;;;;;;;8.02;1.63;;;;;;;2.90;100.00;102313.69;2612348;31;20141;-68
2021/11/22 03:58:06;;;;;;;8.57;2.17;;;;;;;2.78;100.00;102321.16;2611916;36;20057;-67
2021/11/22 04:00:35;;;;;;;6.13;1.90;;;;;;;2.71;100.00;102329.38;2612900;31;20038;-68
2021/11/22 04:03:03;;;;;;;4.47;1.65;;;;;;;2.77;100.00;102338.03;2612309;36;20041;-69
2021/11/22 04:05:32;;;;;;;5.78;1.83;;;;;;;2.56;100.00;102339.59;2612573;36;20154;-67
2021/11/22 04:08:02;;;;;;;9.43;1.98;;;;;;;2.69;100.00;102339.19;2612996;36;20162;-68
2021/11/22 04:10:31;;;;;;;5.35;1.50;;;;;;;2.60;100.00;102340.34;2612419;31;20043;-68
2021/11/22 04:12:59;;;;;;;11.23;1.70;;;;;;;2.57;100.00;102348.41;2612227;31;20217;-68
2021/11/22 04:15:30;;;;;;;2.85;1.48;;;;;;;2.55;100.00;102352.94;2612144;36;20043;-68
2021/11/22 04:17:58;;;;;;;8.90;1.77;;;;;;;2.69;100.00;102353.34;2612554;36;20050;-68
2021/11/22 04:20:27;;;;;;;3.78;1.40;;;;;;;2.57;100.00;102359.06;2612488;31;20081;-68
2021/11/22 04:22:56;;;;;;;6.85;1.80;;;;;;;2.55;100.00;102355.59;2612487;36;20578;-69
2021/11/22 04:25:24;;;;;;;2.88;1.23;;;;;;;2.40;100.00;102357.78;2612258;31;20677;-68
2021/11/22 04:27:53;;;;;;;9.80;1.60;;;;;;;2.34;100.00;102363.28;2612856;36;20050;-68
2021/11/22 04:30:21;;;;;;;5.07;1.77;;;;;;;2.37;100.00;102363.19;2612989;31;20539;-68
2021/11/22 04:32:53;;;;;;;5.90;1.63;;;;;;;2.29;100.00;102370.50;2611544;36;20114;-68
2021/11/22 04:35:21;;;;;;;3.75;1.60;;;;;;;2.16;100.00;102380.63;2612460;36;20454;-68
2021/11/22 04:37:49;;;;;;;7.47;2.10;;;;;;;2.35;100.00;102374.78;2612223;36;20126;-68
2021/11/22 04:40:20;;;;;;;4.50;1.40;;;;;;;2.37;100.00;102384.47;2612456;36;20593;-68
2021/11/22 04:42:50;;;;;;;5.53;1.67;;;;;;;2.39;100.00;102382.59;2612129;36;20100;-68
2021/11/22 04:45:18;;;;;;;;;;;;;;;2.29;100.00;102386.44;2612510;36;20037;-68
2021/11/22 04:47:47;;;;;;;5.80;1.40;;;;;;;2.27;100.00;102388.28;2612262;36;19953;-69
2021/11/22 04:50:20;;;;;;;6.00;1.63;;;;;;;2.25;100.00;102393.66;2612322;31;20047;-67
2021/11/22 04:52:51;;;;;;;7.13;1.80;;;;;;;2.12;100.00;102394.03;2611659;36;20069;-68
2021/11/22 04:55:21;;;;;;;3.88;1.50;;;;;;;2.02;100.00;102401.41;2612608;36;20031;-68
2021/11/22 04:57:49;;;;;;;5.68;1.67;;;;;;;1.95;100.00;102397.19;2612487;36;20030;-68
2021/11/22 05:00:20;;;;;;;3.20;1.20;;;;;;;1.86;100.00;102404.47;2612520;36;20035;-67
2021/11/22 05:02:49;;;;;;;4.93;1.30;;;;;;;1.71;100.00;102407.56;2611650;36;21034;-69
2021/11/22 05:05:21;;;;;;;3.22;1.40;;;;;;;2.04;100.00;102408.41;2612756;31;20456;-70
2021/11/22 05:07:50;;;;;;;9.55;2.00;;;;;;;1.87;100.00;102421.25;2612591;36;20057;-68
2021/11/22 05:10:21;;;;;;;6.15;1.52;;;;;;;1.97;100.00;102421.91;2630276;31;20521;-68
2021/11/22 05:12:49;;;;;;;5.82;1.20;;;;;;;1.87;100.00;102426.56;2611200;36;20030;-68
2021/11/22 05:15:17;;;;;;;4.82;1.55;;;;;;;1.64;100.00;102429.84;2611463;36;20091;-68
2021/11/22 05:17:45;;;;;;;8.13;1.67;;;;;;;1.53;100.00;102432.75;2612401;36;20161;-68
2021/11/22 05:20:14;;;;;;;4.53;1.52;;;;;;;1.47;100.00;102439.09;2611868;36;20156;-69
2021/11/22 05:22:45;;;;;;;4.13;1.35;;;;;;;1.40;100.00;102433.09;2611512;36;20217;-69
2021/11/22 05:25:13;;;;;;;4.55;1.63;;;;;;;1.37;100.00;102438.47;2612151;36;20573;-69
2021/11/22 05:27:41;;;;;;;7.20;1.83;;;;;;;1.37;100.00;102438.47;2612513;36;20134;-68
2021/11/22 05:30:10;;;;;;;3.53;1.50;;;;;;;1.31;100.00;102435.97;2612303;36;20034;-69
2021/11/22 05:32:39;;;;;;;7.20;2.08;;;;;;;1.20;100.00;102444.16;2611759;36;20072;-67
2021/11/22 05:35:08;;;;;;;5.57;1.73;;;;;;;1.17;100.00;102438.09;2612224;36;20125;-67
2021/11/22 05:37:36;;;;;;;3.65;1.73;;;;;;;1.07;100.00;102441.84;2611939;36;20077;-68
2021/11/22 05:40:09;;;;;;;4.13;1.65;;;;;;;0.99;100.00;102445.56;2612569;36;20435;-69
2021/11/22 05:42:37;;;;;;;3.53;1.60;;;;;;;1.02;100.00;102453.44;2612185;36;20176;-68
2021/11/22 05:45:06;;;;;;;6.07;2.10;;;;;;;1.00;100.00;102457.91;2612007;36;20034;-69
2021/11/22 05:47:34;;;;;;;3.85;1.88;;;;;;;0.94;100.00;102463.31;2612132;36;20553;-68
2021/11/22 05:50:06;;;;;;;2.00;1.52;;;;;;;0.92;100.00;102462.50;2611918;36;20042;-68
2021/11/22 05:52:36;;;;;;;4.70;1.52;;;;;;;0.92;100.00;102466.94;2611379;36;20149;-67
2021/11/22 05:55:11;;;;;;;5.47;1.70;;;;;;;0.83;100.00;102462.72;2612683;36;20427;-69
2021/11/22 05:57:39;;;;;;;3.65;1.50;;;;;;;0.73;100.00;102474.41;2612681;36;20057;-67
2021/11/22 06:00:25;;;;;;;4.60;1.60;;;;;;;0.73;100.00;102477.06;2613394;36;20069;-68
2021/11/22 06:02:53;;;;;;;4.75;1.92;;;;;;;0.66;100.00;102477.22;2611766;36;20034;-69
2021/11/22 06:05:21;;;;;;;4.90;2.10;;;;;;;0.63;100.00;102487.88;2612164;36;20527;-69
2021/11/22 06:07:50;;;;;;;6.70;1.90;;;;;;;0.64;100.00;102499.34;2612065;36;20130;-69
2021/11/22 06:10:21;;;;;;;5.13;1.80;;;;;;;0.60;100.00;102490.56;2612159;31;20034;-68
2021/11/22 06:12:49;;;;;;;4.25;1.75;;;;;;;0.58;100.00;102500.34;2611939;36;20523;-67
2021/11/22 06:15:18;;;;;;;7.85;2.47;;;;;;;0.51;100.00;102504.00;2611668;36;20153;-69
2021/11/22 06:17:46;;;;;;;4.10;1.95;;;;;;;0.52;100.00;102503.09;2611859;36;20622;-68
2021/11/22 06:20:14;;;;;;;2.30;1.57;;;;;;;0.45;100.00;102509.44;2611181;36;20041;-69
2021/11/22 06:22:43;;;;;;;4.50;2.22;;;;;;;0.41;100.00;102513.03;2611307;36;20181;-68
2021/11/22 06:25:12;;;;;;;8.55;4.38;;;;;;;0.39;100.00;102533.41;2611824;36;20126;-69
2021/11/22 06:27:43;;;;;;;15.93;4.60;;;;;;;0.37;100.00;102527.22;2612312;36;20165;-70
2021/11/22 06:30:12;;;;;;;8.60;4.60;;;;;;;0.39;100.00;102531.59;2612404;31;20585;-69
2021/11/22 06:32:40;;;;;;;11.00;2.63;;;;;;;0.40;100.00;102530.72;2610975;36;20973;-69
2021/11/22 06:35:08;;;;;;;4.80;2.70;;;;;;;0.34;100.00;102534.34;2611023;36;20133;-68
2021/11/22 06:37:37;;;;;;;5.22;2.97;;;;;;;0.32;100.00;102536.16;2611650;36;20031;-70
2021/11/22 06:40:07;;;;;;;8.80;2.30;;;;;;;0.23;100.00;102538.09;2630212;36;20391;-70
2021/11/22 06:42:35;;;;;;;6.00;2.70;;;;;;;0.25;100.00;102539.81;2611970;36;20034;-69
2021/11/22 06:45:07;;;;;;;9.07;2.33;;;;;;;0.20;100.00;102539.03;2612588;36;20162;-69
2021/11/22 06:47:35;;;;;;;6.68;2.65;;;;;;;0.17;100.00;102550.53;2612007;36;20065;-70
2021/11/22 06:50:05;;;;;;;8.30;2.67;;;;;;;0.19;100.00;102550.50;2611931;36;20094;-68
2021/11/22 06:52:33;;;;;;;;;;;;;;;0.18;100.00;102554.06;2611021;36;20068;-71
2021/11/22 06:55:12;;;;;;;4.93;2.00;;;;;;;0.15;100.00;102562.94;2611849;36;20505;-68
2021/11/22 07:00:25;;;;;;;4.32;2.28;;;;;;;0.06;100.00;102575.44;2610173;36;20447;-71
2021/11/22 07:02:54;;;;;;;4.55;2.25;;;;;;;0.05;100.00;102576.38;2610692;36;20061;-70
2021/11/22 07:05:23;;;;;;;7.28;2.80;;;;;;;0.04;100.00;102590.50;2611259;36;20085;-70
2021/11/22 07:07:52;;;;;;;;;;;;;;;-0.02;100.00;102591.47;2610637;36;20168;-69
2021/11/22 07:10:22;;;;;;;6.90;2.43;;;;;;;-0.01;100.00;102591.44;2610937;36;19978;-70
2021/11/22 07:12:50;;;;;;;4.43;2.63;;;;;;;-0.01;100.00;102596.75;2611342;36;20455;-69
2021/11/22 07:15:21;;;;;;;7.80;2.72;;;;;;;-0.01;100.00;102602.03;2611824;36;20539;-71
2021/11/22 07:17:56;;;;;;;7.82;3.10;;;;;;;-0.04;100.00;102602.09;2610607;36;20035;-70
2021/11/22 07:20:25;;;;;;;6.07;3.33;;;;;;;-0.05;100.00;102610.03;2610976;36;20049;-69
2021/11/22 09:02:05;;;;;;;8.35;4.20;;;;;;;1.84;100.00;102738.19;2607900;54;20046;-68
2021/11/22 09:10:27;;;;;;;10.05;5.28;;;;;;;1.98;100.00;102748.50;2610465;36;20023;-68
2021/11/22 09:38:59;;;;;;;6.45;3.13;;;;;;;3.22;100.00;102766.75;2612193;36;20033;-67
2021/11/22 10:08:49;;;;;;;7.38;1.60;;;;;;;4.00;100.00;102790.28;2629035;36;20171;-67
2021/11/22 10:11:46;;;;;;;2.58;1.50;;;;;;;4.31;100.00;102787.53;2628698;36;20034;-68
2021/11/22 10:14:48;;;;;;;3.30;1.58;;;;;;;4.33;100.00;102787.53;2647723;36;20606;-68
2021/11/22 10:21:04;;;;;;;4.32;1.30;;;;;;;4.43;100.00;102780.97;2626676;36;20026;-68
2021/11/22 10:33:48;;;;;;;4.90;1.58;;;;;;;4.66;100.00;102774.88;2627607;36;20055;-67
2021/11/22 10:36:48;;;;;;;8.02;1.70;;;;;;;4.80;100.00;102762.88;2646534;36;20037;-68
2021/11/22 10:39:46;;;;;;;5.50;1.50;;;;;;;4.83;100.00;102771.66;2629025;36;20391;-67
2021/11/22 10:43:04;;;;;;;3.40;1.23;;;;;;;5.04;100.00;102769.19;2647382;36;20523;-67
2021/11/22 10:49:38;;;;;;;3.58;1.30;;;;;;;5.04;100.00;102775.38;2645979;36;20035;-68
2021/11/22 10:52:47;;;;;;;5.13;1.38;;;;;;;5.19;100.00;102773.13;2647361;36;20506;-69
2021/11/22 10:59:10;;;;;;;4.55;1.45;;;;;;;5.46;100.00;102781.91;2646622;36;20030;-71
2021/11/22 11:21:00;;;;;;;2.17;1.40;;;;;;;5.85;100.00;102785.88;2628397;36;20126;-68
2021/11/22 11:26:59;;;;;;;2.63;1.25;;;;;;;5.94;100.00;102796.22;2647968;36;20398;-70
2021/11/22 11:30:03;;;;;;;3.80;1.20;;;;;;;6.02;100.00;102795.94;2628985;36;20110;-68
2021/11/22 11:32:57;;;;;;;2.28;1.08;;;;;;;6.04;100.00;102791.44;2647067;36;20045;-68
2021/11/22 11:36:07;;;;;;;4.53;1.30;;;;;;;6.15;100.00;102791.84;2628987;36;20598;-69
2021/11/22 11:42:19;;;;;;;3.03;1.15;;;;;;;6.38;100.00;102782.06;2628221;36;20030;-69
2021/11/22 11:45:42;;;;;;;4.22;1.10;;;;;;;6.48;100.00;102789.66;2647294;36;20042;-70
2021/11/22 11:55:29;;;;;;;2.47;1.20;;;;;;;6.55;100.00;102794.75;2644484;36;20061;-68
2021/11/22 12:07:55;;;;;;;;;;;;;;;6.72;100.00;102791.41;2627925;36;20476;-70
2021/11/22 12:14:55;;;;;;;3.13;1.10;;;;;;;6.81;100.00;102782.97;2629022;36;20030;-71
2021/11/22 12:18:18;;;;;;;5.03;1.73;;;;;;;6.81;100.00;102793.69;2611578;54;20069;-69
2021/11/22 12:28:04;;;;;;;3.45;1.08;;;;;;;6.53;100.00;102804.66;2628604;36;20053;-71
2021/11/22 12:37:42;;;;;;;5.13;1.17;;;;;;;6.69;100.00;102799.56;2647667;36;20824;-69
2021/11/22 12:40:56;;;;;;;2.83;0.90;;;;;;;6.63;100.00;102790.84;2646447;36;20740;-69
2021/11/22 12:44:08;;;;;;;2.33;1.00;;;;;;;6.54;100.00;102791.22;2628902;36;20401;-69
2021/11/22 12:50:30;;;;;;;3.63;1.13;;;;;;;6.51;100.00;102802.03;2629698;36;20065;-69
2021/11/22 13:06:25;;;;;;;5.13;1.10;;;;;;;6.29;100.00;102802.03;2610055;47;20014;-69
2021/11/22 13:22:18;;;;;;;7.05;1.17;;;;;;;6.55;100.00;102818.81;2610513;47;20041;-69
2021/11/22 13:32:08;;;;;;;4.80;1.23;;;;;;;6.39;100.00;102826.59;2628843;36;20598;-69
2021/11/22 15:01:51;;;;;;;2.75;1.10;;;;;;;5.97;100.00;102844.22;2612049;36;20110;-70
2021/11/22 15:19:56;;;;;;;2.60;1.10;;;;;;;5.27;100.00;102869.84;2614165;36;20446;-71
2021/11/22 16:46:20;;;;;;;10.77;4.53;;;;;;;3.22;100.00;102903.34;2610462;36;20443;-68
2021/11/22 16:49:20;;;;;;;11.00;4.72;;;;;;;3.22;100.00;102902.47;2612058;36;20034;-69
2021/11/22 16:58:03;;;;;;;15.60;5.85;;;;;;;3.01;100.00;102918.03;2627246;36;20038;-69
2021/11/22 17:04:03;;;;;;;10.88;6.35;;;;;;;2.92;100.00;102926.25;2609545;46;20034;-70
2021/11/22 17:06:52;;;;;;;11.48;6.25;;;;;;;2.87;100.00;102928.13;2609812;36;20094;-69
2021/11/22 17:12:01;;;;;;;12.05;7.43;;;;;;;2.83;100.00;102939.72;2609081;36;20034;-70
2021/11/22 17:14:32;;;;;;;16.08;8.10;;;;;;;2.78;100.00;102934.53;2609015;31;20030;-69
2021/11/22 17:19:44;;;;;;;12.35;7.63;;;;;;;2.69;100.00;102927.63;2609607;36;20559;-69
2021/11/22 17:22:12;;;;;;;15.27;8.48;;;;;;;2.67;100.00;102929.44;2610067;36;20505;-71
2021/11/22 17:27:38;;;;;;;18.75;11.32;;;;;;;2.61;100.00;102930.47;2611827;36;20034;-69
2021/11/22 17:33:23;;;;;;;18.83;12.65;;;;;;;2.51;100.00;102928.03;2609566;36;20026;-70
2021/11/22 17:41:30;;;;;;;17.88;12.07;;;;;;;2.31;100.00;102936.41;2607638;36;20097;-69
2021/11/22 17:44:00;;;;;;;22.92;12.95;;;;;;;2.30;100.00;102942.63;2610165;36;20038;-71
2021/11/22 17:54:35;;;;;;;20.30;11.38;;;;;;;2.32;100.00;102954.13;2610961;36;20026;-69
2021/11/22 17:59:44;;;;;;;20.38;11.13;;;;;;;2.23;100.00;102971.13;2606890;54;20058;-69
2021/11/22 18:02:14;;;;;;;16.38;10.75;;;;;;;2.19;100.00;102969.44;2606682;36;20070;-69
2021/11/22 18:04:43;;;;;;;19.38;12.48;;;;;;;2.13;100.00;102974.88;2608267;36;20602;-71
2021/11/22 18:07:20;;;;;;;17.73;11.50;;;;;;;2.07;100.00;102970.53;2608455;31;21022;-68
2021/11/22 18:09:56;;;;;;;21.90;11.73;;;;;;;2.04;100.00;102975.91;2605196;36;20539;-69
2021/11/22 18:12:24;;;;;;;17.88;12.20;;;;;;;1.93;100.00;102978.78;2596459;31;20133;-68
2021/11/22 18:14:59;;;;;;;18.92;12.80;;;;;;;1.93;100.00;102976.13;2603412;36;20057;-68
2021/11/22 18:17:28;;;;;;;17.77;11.18;;;;;;;1.80;100.00;102977.25;2603471;36;20058;-68
2021/11/22 18:25:55;;;;;;;21.08;13.27;;;;;;;1.80;100.00;102982.56;2607056;36;20034;-70
2021/11/22 18:28:23;;;;;;;27.55;15.57;;;;;;;1.82;100.00;102989.56;2610072;36;20054;-68
2021/11/22 18:30:57;;;;;;;23.45;16.35;;;;;;;1.69;100.00;102991.59;2605019;31;20167;-68
2021/11/22 18:33:29;;;;;;;30.17;17.67;;;;;;;1.73;100.00;102993.25;2607040;36;20121;-69
2021/11/22 18:36:09;;;;;;;28.75;17.08;;;;;;;1.69;100.00;102991.59;2607138;36;20035;-70
2021/11/22 18:41:29;;;;;;;25.05;17.00;;;;;;;1.52;100.00;103005.13;2605471;36;20038;-69
2021/11/22 18:44:00;;;;;;;24.40;15.68;;;;;;;1.57;100.00;102997.06;2607179;36;20145;-69
2021/11/22 18:58:30;;;;;;;28.35;17.67;;;;;;;1.43;100.00;102993.75;2605745;31;20149;-68
2021/11/22 19:01:06;;;;;;;28.63;19.33;;;;;;;1.36;100.00;102995.66;2605999;36;20042;-69
2021/11/22 19:03:36;;;;;;;33.15;18.98;;;;;;;1.31;100.00;102994.84;2606090;36;20062;-69
2021/11/22 19:06:05;;;;;;;32.95;18.85;;;;;;;1.34;100.00;102992.13;2606469;36;20546;-69
2021/11/22 19:17:01;;;;;;;32.15;18.85;;;;;;;1.51;100.00;102994.53;2608316;36;20039;-69
2021/11/22 19:22:29;;;;;;;27.23;16.90;;;;;;;1.52;100.00;103004.25;2624188;36;20030;-67
2021/11/22 19:31:33;;;;;;;25.52;15.38;;;;;;;1.53;100.00;103003.31;2606391;54;20058;-68
2021/11/22 19:37:39;;;;;;;25.67;16.30;;;;;;;1.46;100.00;102988.41;2624182;36;20086;-68
2021/11/22 19:59:08;;;;;;;31.42;19.67;;;;;;;1.10;100.00;103006.66;2605055;36;20041;-69
2021/11/22 20:02:04;;;;;;;32.15;19.90;;;;;;;1.05;100.00;103010.22;2605188;36;20729;-69
2021/11/22 20:04:32;;;;;;;28.73;19.15;;;;;;;1.10;100.00;103009.31;2604969;36;22292;-70
2021/11/22 20:19:13;;;;;;;33.92;22.92;;;;;;;0.80;100.00;102992.91;2606589;36;20058;-70
2021/11/22 20:24:53;;;;;;;41.67;24.90;;;;;;;0.78;100.00;103000.00;2606121;36;20026;-68
2021/11/22 20:42:10;;;;;;;35.92;25.05;;;;;;;0.76;100.00;103017.72;2604884;36;20047;-69
2021/11/22 20:45:18;;;;;;;39.90;23.73;;;;;;;0.69;100.00;103012.50;2605953;36;20053;-69
2021/11/22 21:06:03;;;;;;;40.42;24.73;;;;;;;0.54;100.00;103031.22;2603845;54;20015;-70
